sensor_id;sensor_type;location;lat;lon;timestamp;P1;durP1;ratioP1;P2;durP2;ratioP2
25780;SDS011;13626;48.128;11.628;2023-03-31T00:02:03;8.27;;;4.30;;
25780;SDS011;13626;48.128;11.628;2023-03-31T00:04:42;8.25;;;4.00;;
25780;SDS011;13626;48.128;11.628;2023-03-31T00:07:18;7.70;;;4.18;;
25780;SDS011;13626;48.128;11.628;2023-03-31T00:09:50;6.18;;;3.67;;
25780;SDS011;13626;48.128;11.628;2023-03-31T00:12:35;8.32;;;4.13;;
25780;SDS011;13626;48.128;11.628;2023-03-31T00:15:03;5.28;;;3.83;;
25780;SDS011;13626;48.128;11.628;2023-03-31T00:17:30;11.15;;;5.15;;
25780;SDS011;13626;48.128;11.628;2023-03-31T00:19:58;10.50;;;4.70;;
25780;SDS011;13626;48.128;11.628;2023-03-31T00:22:30;7.93;;;4.53;;
25780;SDS011;13626;48.128;11.628;2023-03-31T00:24:57;6.45;;;3.97;;
25780;SDS011;13626;48.128;11.628;2023-03-31T00:27:24;6.55;;;4.13;;
25780;SDS011;13626;48.128;11.628;2023-03-31T00:29:53;9.50;;;4.20;;
25780;SDS011;13626;48.128;11.628;2023-03-31T00:32:20;6.43;;;4.20;;
25780;SDS011;13626;48.128;11.628;2023-03-31T00:34:47;9.52;;;4.38;;
25780;SDS011;13626;48.128;11.628;2023-03-31T00:37:15;8.48;;;4.22;;
25780;SDS011;13626;48.128;11.628;2023-03-31T00:39:42;5.60;;;4.07;;
25780;SDS011;13626;48.128;11.628;2023-03-31T00:42:09;8.02;;;4.38;;
25780;SDS011;13626;48.128;11.628;2023-03-31T00:47:26;10.18;;;4.70;;
25780;SDS011;13626;48.128;11.628;2023-03-31T00:49:55;6.10;;;3.95;;
25780;SDS011;13626;48.128;11.628;2023-03-31T00:52:33;7.53;;;4.05;;
25780;SDS011;13626;48.128;11.628;2023-03-31T00:55:06;7.38;;;4.45;;
25780;SDS011;13626;48.128;11.628;2023-03-31T00:57:35;9.07;;;4.57;;
25780;SDS011;13626;48.128;11.628;2023-03-31T01:00:07;8.77;;;4.53;;
25780;SDS011;13626;48.128;11.628;2023-03-31T01:02:45;8.30;;;4.70;;
25780;SDS011;13626;48.128;11.628;2023-03-31T01:05:18;12.15;;;5.35;;
25780;SDS011;13626;48.128;11.628;2023-03-31T01:07:47;9.82;;;4.82;;
25780;SDS011;13626;48.128;11.628;2023-03-31T01:10:14;9.25;;;5.07;;
25780;SDS011;13626;48.128;11.628;2023-03-31T01:12:43;10.05;;;5.40;;
25780;SDS011;13626;48.128;11.628;2023-03-31T01:15:12;11.25;;;4.88;;
25780;SDS011;13626;48.128;11.628;2023-03-31T01:17:40;8.65;;;5.07;;
25780;SDS011;13626;48.128;11.628;2023-03-31T01:48:33;6.97;;;4.53;;
25780;SDS011;13626;48.128;11.628;2023-03-31T01:51:04;9.35;;;4.65;;
25780;SDS011;13626;48.128;11.628;2023-03-31T01:53:49;8.48;;;4.93;;
25780;SDS011;13626;48.128;11.628;2023-03-31T01:57:04;7.18;;;4.47;;
25780;SDS011;13626;48.128;11.628;2023-03-31T02:00:06;9.35;;;5.10;;
25780;SDS011;13626;48.128;11.628;2023-03-31T02:02:06;8.02;;;4.50;;
25780;SDS011;13626;48.128;11.628;2023-03-31T02:04:37;12.38;;;5.47;;
25780;SDS011;13626;48.128;11.628;2023-03-31T02:07:21;7.70;;;4.63;;
25780;SDS011;13626;48.128;11.628;2023-03-31T02:09:52;9.98;;;5.10;;
25780;SDS011;13626;48.128;11.628;2023-03-31T02:12:23;8.05;;;5.03;;
25780;SDS011;13626;48.128;11.628;2023-03-31T02:14:51;9.07;;;4.70;;
25780;SDS011;13626;48.128;11.628;2023-03-31T02:17:20;10.07;;;5.10;;
25780;SDS011;13626;48.128;11.628;2023-03-31T02:19:56;9.07;;;5.10;;
25780;SDS011;13626;48.128;11.628;2023-03-31T02:22:28;8.77;;;5.03;;
25780;SDS011;13626;48.128;11.628;2023-03-31T02:24:56;7.32;;;4.88;;
25780;SDS011;13626;48.128;11.628;2023-03-31T02:27:32;7.90;;;4.60;;
25780;SDS011;13626;48.128;11.628;2023-03-31T02:30:01;8.82;;;4.82;;
25780;SDS011;13626;48.128;11.628;2023-03-31T02:34:59;10.00;;;5.55;;
25780;SDS011;13626;48.128;11.628;2023-03-31T02:37:27;7.82;;;5.03;;
25780;SDS011;13626;48.128;11.628;2023-03-31T02:39:55;8.88;;;4.97;;
25780;SDS011;13626;48.128;11.628;2023-03-31T02:42:23;7.93;;;5.18;;
25780;SDS011;13626;48.128;11.628;2023-03-31T02:44:50;9.68;;;5.05;;
25780;SDS011;13626;48.128;11.628;2023-03-31T02:47:18;10.18;;;5.20;;
25780;SDS011;13626;48.128;11.628;2023-03-31T02:49:48;9.98;;;4.88;;
25780;SDS011;13626;48.128;11.628;2023-03-31T02:57:55;6.22;;;4.10;;
25780;SDS011;13626;48.128;11.628;2023-03-31T03:10:44;11.68;;;5.32;;
25780;SDS011;13626;48.128;11.628;2023-03-31T03:13:19;8.27;;;5.00;;
25780;SDS011;13626;48.128;11.628;2023-03-31T03:15:49;8.07;;;5.10;;
25780;SDS011;13626;48.128;11.628;2023-03-31T03:18:18;9.20;;;4.50;;
25780;SDS011;13626;48.128;11.628;2023-03-31T03:20:46;8.70;;;4.45;;
25780;SDS011;13626;48.128;11.628;2023-03-31T03:23:15;12.27;;;4.70;;
25780;SDS011;13626;48.128;11.628;2023-03-31T03:25:43;7.70;;;4.70;;
25780;SDS011;13626;48.128;11.628;2023-03-31T03:28:12;10.35;;;5.10;;
25780;SDS011;13626;48.128;11.628;2023-03-31T03:30:39;6.18;;;4.70;;
25780;SDS011;13626;48.128;11.628;2023-03-31T03:33:06;7.10;;;4.95;;
25780;SDS011;13626;48.128;11.628;2023-03-31T03:35:33;8.50;;;5.03;;
25780;SDS011;13626;48.128;11.628;2023-03-31T03:38:01;8.88;;;5.00;;
25780;SDS011;13626;48.128;11.628;2023-03-31T03:40:28;8.70;;;4.75;;
25780;SDS011;13626;48.128;11.628;2023-03-31T03:42:55;8.82;;;4.75;;
25780;SDS011;13626;48.128;11.628;2023-03-31T03:45:23;8.15;;;5.00;;
25780;SDS011;13626;48.128;11.628;2023-03-31T03:47:50;9.10;;;5.53;;
25780;SDS011;13626;48.128;11.628;2023-03-31T03:50:17;12.88;;;5.13;;
25780;SDS011;13626;48.128;11.628;2023-03-31T03:52:44;9.07;;;5.10;;
25780;SDS011;13626;48.128;11.628;2023-03-31T03:55:12;10.27;;;4.93;;
25780;SDS011;13626;48.128;11.628;2023-03-31T03:57:39;9.00;;;4.95;;
25780;SDS011;13626;48.128;11.628;2023-03-31T04:00:06;9.27;;;5.20;;
25780;SDS011;13626;48.128;11.628;2023-03-31T04:02:37;10.05;;;4.80;;
25780;SDS011;13626;48.128;11.628;2023-03-31T04:05:05;10.75;;;5.25;;
25780;SDS011;13626;48.128;11.628;2023-03-31T04:07:33;10.57;;;5.82;;
25780;SDS011;13626;48.128;11.628;2023-03-31T04:10:00;7.97;;;4.47;;
25780;SDS011;13626;48.128;11.628;2023-03-31T04:12:27;8.40;;;4.63;;
25780;SDS011;13626;48.128;11.628;2023-03-31T04:14:54;7.53;;;4.78;;
25780;SDS011;13626;48.128;11.628;2023-03-31T04:17:21;10.45;;;4.93;;
25780;SDS011;13626;48.128;11.628;2023-03-31T04:20:01;10.43;;;5.35;;
25780;SDS011;13626;48.128;11.628;2023-03-31T04:22:31;8.90;;;4.97;;
25780;SDS011;13626;48.128;11.628;2023-03-31T04:25:10;8.85;;;5.38;;
25780;SDS011;13626;48.128;11.628;2023-03-31T04:27:46;9.05;;;5.22;;
25780;SDS011;13626;48.128;11.628;2023-03-31T04:30:16;10.93;;;5.60;;
25780;SDS011;13626;48.128;11.628;2023-03-31T04:32:50;12.52;;;5.68;;
25780;SDS011;13626;48.128;11.628;2023-03-31T04:35:19;11.85;;;5.68;;
25780;SDS011;13626;48.128;11.628;2023-03-31T04:37:47;11.65;;;5.28;;
25780;SDS011;13626;48.128;11.628;2023-03-31T04:40:14;9.73;;;5.18;;
25780;SDS011;13626;48.128;11.628;2023-03-31T04:42:42;9.10;;;5.28;;
25780;SDS011;13626;48.128;11.628;2023-03-31T04:45:11;12.60;;;5.70;;
25780;SDS011;13626;48.128;11.628;2023-03-31T04:47:39;9.80;;;5.03;;
25780;SDS011;13626;48.128;11.628;2023-03-31T04:50:07;12.38;;;5.47;;
25780;SDS011;13626;48.128;11.628;2023-03-31T04:52:41;9.93;;;5.40;;
25780;SDS011;13626;48.128;11.628;2023-03-31T04:55:08;12.07;;;5.85;;
25780;SDS011;13626;48.128;11.628;2023-03-31T04:57:36;9.38;;;5.75;;
25780;SDS011;13626;48.128;11.628;2023-03-31T05:00:03;8.60;;;5.22;;
25780;SDS011;13626;48.128;11.628;2023-03-31T05:02:34;10.60;;;6.15;;
25780;SDS011;13626;48.128;11.628;2023-03-31T05:05:01;11.63;;;6.20;;
25780;SDS011;13626;48.128;11.628;2023-03-31T05:07:29;12.93;;;6.28;;
25780;SDS011;13626;48.128;11.628;2023-03-31T05:09:56;10.10;;;5.53;;
25780;SDS011;13626;48.128;11.628;2023-03-31T05:12:24;7.65;;;5.50;;
25780;SDS011;13626;48.128;11.628;2023-03-31T05:14:51;13.07;;;6.40;;
25780;SDS011;13626;48.128;11.628;2023-03-31T05:17:18;14.48;;;6.20;;
25780;SDS011;13626;48.128;11.628;2023-03-31T05:19:45;11.02;;;6.55;;
25780;SDS011;13626;48.128;11.628;2023-03-31T05:22:12;10.40;;;6.55;;
25780;SDS011;13626;48.128;11.628;2023-03-31T05:24:39;11.82;;;6.35;;
25780;SDS011;13626;48.128;11.628;2023-03-31T05:27:07;12.05;;;6.50;;
25780;SDS011;13626;48.128;11.628;2023-03-31T05:29:34;13.65;;;6.18;;
25780;SDS011;13626;48.128;11.628;2023-03-31T05:32:01;10.60;;;5.90;;
25780;SDS011;13626;48.128;11.628;2023-03-31T05:34:29;10.30;;;6.53;;
25780;SDS011;13626;48.128;11.628;2023-03-31T05:36:56;10.80;;;6.30;;
25780;SDS011;13626;48.128;11.628;2023-03-31T05:39:23;9.88;;;6.60;;
25780;SDS011;13626;48.128;11.628;2023-03-31T05:41:51;10.35;;;6.40;;
25780;SDS011;13626;48.128;11.628;2023-03-31T05:44:18;13.60;;;6.25;;
25780;SDS011;13626;48.128;11.628;2023-03-31T05:46:46;10.55;;;6.40;;
25780;SDS011;13626;48.128;11.628;2023-03-31T05:49:13;11.38;;;6.68;;
25780;SDS011;13626;48.128;11.628;2023-03-31T05:51:42;14.07;;;6.80;;
25780;SDS011;13626;48.128;11.628;2023-03-31T05:54:09;11.75;;;7.63;;
25780;SDS011;13626;48.128;11.628;2023-03-31T05:56:37;9.77;;;6.53;;
25780;SDS011;13626;48.128;11.628;2023-03-31T05:59:04;11.50;;;6.90;;
25780;SDS011;13626;48.128;11.628;2023-03-31T06:01:31;12.07;;;7.13;;
25780;SDS011;13626;48.128;11.628;2023-03-31T06:03:58;9.35;;;6.57;;
25780;SDS011;13626;48.128;11.628;2023-03-31T06:06:26;14.13;;;7.43;;
25780;SDS011;13626;48.128;11.628;2023-03-31T06:08:53;12.57;;;6.72;;
25780;SDS011;13626;48.128;11.628;2023-03-31T06:11:21;11.25;;;6.88;;
25780;SDS011;13626;48.128;11.628;2023-03-31T06:13:48;13.70;;;7.28;;
25780;SDS011;13626;48.128;11.628;2023-03-31T06:16:15;10.35;;;6.53;;
25780;SDS011;13626;48.128;11.628;2023-03-31T06:18:43;12.77;;;6.22;;
25780;SDS011;13626;48.128;11.628;2023-03-31T06:21:14;11.98;;;6.10;;
25780;SDS011;13626;48.128;11.628;2023-03-31T06:23:42;10.95;;;5.90;;
25780;SDS011;13626;48.128;11.628;2023-03-31T06:26:10;10.38;;;5.03;;
25780;SDS011;13626;48.128;11.628;2023-03-31T06:28:39;11.68;;;6.30;;
25780;SDS011;13626;48.128;11.628;2023-03-31T06:31:07;11.40;;;6.18;;
25780;SDS011;13626;48.128;11.628;2023-03-31T06:33:34;12.18;;;5.47;;
25780;SDS011;13626;48.128;11.628;2023-03-31T06:36:02;12.43;;;5.53;;
25780;SDS011;13626;48.128;11.628;2023-03-31T06:38:31;11.38;;;5.45;;
25780;SDS011;13626;48.128;11.628;2023-03-31T06:40:59;8.40;;;5.68;;
25780;SDS011;13626;48.128;11.628;2023-03-31T06:43:26;10.27;;;5.47;;
25780;SDS011;13626;48.128;11.628;2023-03-31T06:45:53;12.60;;;5.13;;
25780;SDS011;13626;48.128;11.628;2023-03-31T06:48:21;7.63;;;4.97;;
25780;SDS011;13626;48.128;11.628;2023-03-31T06:50:48;7.75;;;4.60;;
25780;SDS011;13626;48.128;11.628;2023-03-31T06:53:15;7.15;;;4.40;;
25780;SDS011;13626;48.128;11.628;2023-03-31T06:55:43;10.10;;;5.32;;
25780;SDS011;13626;48.128;11.628;2023-03-31T06:58:10;6.45;;;4.63;;
25780;SDS011;13626;48.128;11.628;2023-03-31T07:00:37;6.93;;;4.78;;
25780;SDS011;13626;48.128;11.628;2023-03-31T07:03:05;8.50;;;5.07;;
25780;SDS011;13626;48.128;11.628;2023-03-31T07:05:34;8.40;;;5.20;;
25780;SDS011;13626;48.128;11.628;2023-03-31T07:08:01;10.30;;;4.75;;
25780;SDS011;13626;48.128;11.628;2023-03-31T07:10:29;12.50;;;4.72;;
25780;SDS011;13626;48.128;11.628;2023-03-31T07:12:56;6.90;;;4.65;;
25780;SDS011;13626;48.128;11.628;2023-03-31T07:15:24;7.60;;;4.60;;
25780;SDS011;13626;48.128;11.628;2023-03-31T07:17:55;6.50;;;4.72;;
25780;SDS011;13626;48.128;11.628;2023-03-31T07:20:27;10.98;;;5.00;;
25780;SDS011;13626;48.128;11.628;2023-03-31T07:22:55;8.40;;;4.95;;
25780;SDS011;13626;48.128;11.628;2023-03-31T07:25:22;12.18;;;5.20;;
25780;SDS011;13626;48.128;11.628;2023-03-31T07:27:50;7.45;;;5.57;;
25780;SDS011;13626;48.128;11.628;2023-03-31T07:30:18;12.85;;;5.90;;
25780;SDS011;13626;48.128;11.628;2023-03-31T07:32:46;11.40;;;5.35;;
25780;SDS011;13626;48.128;11.628;2023-03-31T07:35:13;9.32;;;5.30;;
25780;SDS011;13626;48.128;11.628;2023-03-31T07:37:41;6.65;;;5.05;;
25780;SDS011;13626;48.128;11.628;2023-03-31T07:40:09;9.20;;;4.75;;
25780;SDS011;13626;48.128;11.628;2023-03-31T07:42:37;9.73;;;5.00;;
25780;SDS011;13626;48.128;11.628;2023-03-31T07:45:07;8.90;;;5.30;;
25780;SDS011;13626;48.128;11.628;2023-03-31T07:47:35;9.35;;;5.28;;
25780;SDS011;13626;48.128;11.628;2023-03-31T07:50:05;11.30;;;5.65;;
25780;SDS011;13626;48.128;11.628;2023-03-31T07:52:32;8.65;;;4.90;;
25780;SDS011;13626;48.128;11.628;2023-03-31T07:54:59;9.27;;;5.43;;
25780;SDS011;13626;48.128;11.628;2023-03-31T07:57:26;7.93;;;4.93;;
25780;SDS011;13626;48.128;11.628;2023-03-31T07:59:54;10.60;;;5.40;;
25780;SDS011;13626;48.128;11.628;2023-03-31T08:02:21;15.88;;;6.28;;
25780;SDS011;13626;48.128;11.628;2023-03-31T08:04:48;12.15;;;5.70;;
25780;SDS011;13626;48.128;11.628;2023-03-31T08:07:16;13.68;;;5.40;;
25780;SDS011;13626;48.128;11.628;2023-03-31T08:09:44;9.02;;;5.50;;
25780;SDS011;13626;48.128;11.628;2023-03-31T08:12:12;7.20;;;5.22;;
25780;SDS011;13626;48.128;11.628;2023-03-31T08:14:40;8.88;;;5.35;;
25780;SDS011;13626;48.128;11.628;2023-03-31T08:17:08;11.00;;;5.32;;
25780;SDS011;13626;48.128;11.628;2023-03-31T08:19:35;10.65;;;5.35;;
25780;SDS011;13626;48.128;11.628;2023-03-31T08:22:03;11.07;;;5.43;;
25780;SDS011;13626;48.128;11.628;2023-03-31T08:24:30;8.77;;;5.70;;
25780;SDS011;13626;48.128;11.628;2023-03-31T08:26:57;9.93;;;5.53;;
25780;SDS011;13626;48.128;11.628;2023-03-31T08:29:24;11.00;;;6.30;;
25780;SDS011;13626;48.128;11.628;2023-03-31T08:31:52;10.48;;;5.60;;
25780;SDS011;13626;48.128;11.628;2023-03-31T08:34:20;9.90;;;5.43;;
25780;SDS011;13626;48.128;11.628;2023-03-31T08:36:47;9.90;;;5.80;;
25780;SDS011;13626;48.128;11.628;2023-03-31T08:39:14;11.63;;;5.78;;
25780;SDS011;13626;48.128;11.628;2023-03-31T08:41:50;12.65;;;5.43;;
25780;SDS011;13626;48.128;11.628;2023-03-31T08:44:21;9.98;;;5.45;;
25780;SDS011;13626;48.128;11.628;2023-03-31T08:46:50;11.55;;;5.63;;
25780;SDS011;13626;48.128;11.628;2023-03-31T08:49:20;8.05;;;5.70;;
25780;SDS011;13626;48.128;11.628;2023-03-31T08:51:52;12.30;;;5.47;;
25780;SDS011;13626;48.128;11.628;2023-03-31T08:55:04;12.48;;;4.70;;
25780;SDS011;13626;48.128;11.628;2023-03-31T08:57:19;10.07;;;4.72;;
25780;SDS011;13626;48.128;11.628;2023-03-31T08:59:47;9.10;;;3.85;;
25780;SDS011;13626;48.128;11.628;2023-03-31T09:02:19;6.70;;;3.95;;
25780;SDS011;13626;48.128;11.628;2023-03-31T09:05:02;7.43;;;3.78;;
25780;SDS011;13626;48.128;11.628;2023-03-31T09:10:26;4.10;;;3.20;;
25780;SDS011;13626;48.128;11.628;2023-03-31T09:12:56;7.35;;;3.30;;
25780;SDS011;13626;48.128;11.628;2023-03-31T09:15:31;5.47;;;3.83;;
25780;SDS011;13626;48.128;11.628;2023-03-31T09:18:26;4.97;;;3.67;;
25780;SDS011;13626;48.128;11.628;2023-03-31T09:20:50;5.20;;;3.63;;
25780;SDS011;13626;48.128;11.628;2023-03-31T09:23:26;6.93;;;3.45;;
25780;SDS011;13626;48.128;11.628;2023-03-31T09:25:55;5.97;;;3.55;;
25780;SDS011;13626;48.128;11.628;2023-03-31T09:28:34;5.03;;;3.58;;
25780;SDS011;13626;48.128;11.628;2023-03-31T09:31:10;6.75;;;4.07;;
25780;SDS011;13626;48.128;11.628;2023-03-31T09:33:45;7.00;;;3.88;;
25780;SDS011;13626;48.128;11.628;2023-03-31T09:36:14;5.75;;;3.20;;
25780;SDS011;13626;48.128;11.628;2023-03-31T09:38:42;3.40;;;2.80;;
25780;SDS011;13626;48.128;11.628;2023-03-31T09:41:10;6.07;;;3.30;;
25780;SDS011;13626;48.128;11.628;2023-03-31T09:43:39;6.65;;;3.40;;
25780;SDS011;13626;48.128;11.628;2023-03-31T09:48:51;6.00;;;3.10;;
25780;SDS011;13626;48.128;11.628;2023-03-31T09:51:22;4.47;;;3.10;;
25780;SDS011;13626;48.128;11.628;2023-03-31T09:53:53;5.25;;;3.20;;
25780;SDS011;13626;48.128;11.628;2023-03-31T09:56:44;5.93;;;3.13;;
25780;SDS011;13626;48.128;11.628;2023-03-31T09:59:13;6.30;;;3.20;;
25780;SDS011;13626;48.128;11.628;2023-03-31T10:01:43;7.00;;;3.28;;
25780;SDS011;13626;48.128;11.628;2023-03-31T10:04:15;7.80;;;3.30;;
25780;SDS011;13626;48.128;11.628;2023-03-31T10:06:44;4.80;;;3.13;;
25780;SDS011;13626;48.128;11.628;2023-03-31T10:09:12;5.10;;;3.08;;
25780;SDS011;13626;48.128;11.628;2023-03-31T10:11:40;5.80;;;2.90;;
25780;SDS011;13626;48.128;11.628;2023-03-31T10:14:17;4.57;;;2.83;;
25780;SDS011;13626;48.128;11.628;2023-03-31T10:16:55;4.55;;;3.10;;
25780;SDS011;13626;48.128;11.628;2023-03-31T10:19:23;4.28;;;2.60;;
25780;SDS011;13626;48.128;11.628;2023-03-31T10:22:02;4.40;;;2.67;;
25780;SDS011;13626;48.128;11.628;2023-03-31T10:24:40;4.22;;;2.60;;
25780;SDS011;13626;48.128;11.628;2023-03-31T10:27:24;3.85;;;2.50;;
25780;SDS011;13626;48.128;11.628;2023-03-31T10:29:58;5.10;;;2.70;;
25780;SDS011;13626;48.128;11.628;2023-03-31T10:32:29;3.67;;;2.55;;
25780;SDS011;13626;48.128;11.628;2023-03-31T10:35:02;3.60;;;2.47;;
25780;SDS011;13626;48.128;11.628;2023-03-31T10:37:30;5.85;;;2.63;;
25780;SDS011;13626;48.128;11.628;2023-03-31T10:40:03;4.25;;;2.50;;
25780;SDS011;13626;48.128;11.628;2023-03-31T10:42:31;6.63;;;3.22;;
25780;SDS011;13626;48.128;11.628;2023-03-31T10:45:12;3.75;;;2.30;;
25780;SDS011;13626;48.128;11.628;2023-03-31T10:47:59;4.03;;;2.90;;
25780;SDS011;13626;48.128;11.628;2023-03-31T10:50:28;5.20;;;3.25;;
25780;SDS011;13626;48.128;11.628;2023-03-31T10:53:00;3.67;;;2.72;;
25780;SDS011;13626;48.128;11.628;2023-03-31T10:55:36;6.75;;;3.17;;
25780;SDS011;13626;48.128;11.628;2023-03-31T11:00:52;5.95;;;2.53;;
25780;SDS011;13626;48.128;11.628;2023-03-31T11:11:17;4.30;;;3.10;;
25780;SDS011;13626;48.128;11.628;2023-03-31T11:14:00;3.97;;;3.08;;
25780;SDS011;13626;48.128;11.628;2023-03-31T11:21:41;7.55;;;3.53;;
25780;SDS011;13626;48.128;11.628;2023-03-31T11:34:25;2.58;;;1.63;;
25780;SDS011;13626;48.128;11.628;2023-03-31T11:37:03;1.40;;;0.90;;
25780;SDS011;13626;48.128;11.628;2023-03-31T11:42:54;3.10;;;1.15;;
25780;SDS011;13626;48.128;11.628;2023-03-31T11:45:15;3.58;;;1.33;;
25780;SDS011;13626;48.128;11.628;2023-03-31T11:47:44;1.55;;;1.35;;
25780;SDS011;13626;48.128;11.628;2023-03-31T11:50:13;2.97;;;1.40;;
25780;SDS011;13626;48.128;11.628;2023-03-31T11:52:43;2.58;;;1.48;;
25780;SDS011;13626;48.128;11.628;2023-03-31T11:55:15;2.90;;;1.33;;
25780;SDS011;13626;48.128;11.628;2023-03-31T12:00:28;2.35;;;1.20;;
25780;SDS011;13626;48.128;11.628;2023-03-31T12:03:03;3.85;;;1.58;;
25780;SDS011;13626;48.128;11.628;2023-03-31T12:05:33;2.28;;;1.20;;
25780;SDS011;13626;48.128;11.628;2023-03-31T12:08:14;3.83;;;1.80;;
25780;SDS011;13626;48.128;11.628;2023-03-31T12:11:06;4.88;;;1.20;;
25780;SDS011;13626;48.128;11.628;2023-03-31T12:13:35;3.65;;;1.42;;
25780;SDS011;13626;48.128;11.628;2023-03-31T12:18:41;2.08;;;1.50;;
25780;SDS011;13626;48.128;11.628;2023-03-31T12:21:09;2.42;;;1.30;;
25780;SDS011;13626;48.128;11.628;2023-03-31T12:23:38;2.20;;;1.20;;
25780;SDS011;13626;48.128;11.628;2023-03-31T12:26:10;2.33;;;1.38;;
25780;SDS011;13626;48.128;11.628;2023-03-31T12:28:38;2.22;;;1.30;;
25780;SDS011;13626;48.128;11.628;2023-03-31T12:31:07;4.65;;;1.50;;
25780;SDS011;13626;48.128;11.628;2023-03-31T12:33:38;3.70;;;1.75;;
25780;SDS011;13626;48.128;11.628;2023-03-31T12:41:24;1.75;;;1.25;;
25780;SDS011;13626;48.128;11.628;2023-03-31T12:46:23;1.70;;;1.20;;
25780;SDS011;13626;48.128;11.628;2023-03-31T12:51:32;3.40;;;1.40;;
25780;SDS011;13626;48.128;11.628;2023-03-31T13:02:20;5.97;;;1.90;;
25780;SDS011;13626;48.128;11.628;2023-03-31T13:04:48;3.25;;;1.70;;
25780;SDS011;13626;48.128;11.628;2023-03-31T13:10:22;2.28;;;1.50;;
25780;SDS011;13626;48.128;11.628;2023-03-31T13:12:59;2.47;;;1.33;;
25780;SDS011;13626;48.128;11.628;2023-03-31T13:15:27;5.40;;;1.30;;
25780;SDS011;13626;48.128;11.628;2023-03-31T13:17:58;4.57;;;1.20;;
25780;SDS011;13626;48.128;11.628;2023-03-31T13:27:56;1.73;;;0.88;;
25780;SDS011;13626;48.128;11.628;2023-03-31T13:33:07;1.20;;;0.70;;
25780;SDS011;13626;48.128;11.628;2023-03-31T13:35:37;1.30;;;0.68;;
25780;SDS011;13626;48.128;11.628;2023-03-31T13:46:29;2.30;;;0.73;;
25780;SDS011;13626;48.128;11.628;2023-03-31T13:52:08;2.92;;;0.88;;
25780;SDS011;13626;48.128;11.628;2023-03-31T14:05:19;1.27;;;0.90;;
25780;SDS011;13626;48.128;11.628;2023-03-31T14:07:53;1.73;;;1.20;;
25780;SDS011;13626;48.128;11.628;2023-03-31T14:10:23;2.90;;;0.93;;
25780;SDS011;13626;48.128;11.628;2023-03-31T14:12:51;1.70;;;0.90;;
25780;SDS011;13626;48.128;11.628;2023-03-31T14:15:19;2.08;;;1.17;;
25780;SDS011;13626;48.128;11.628;2023-03-31T14:17:46;3.28;;;1.23;;
25780;SDS011;13626;48.128;11.628;2023-03-31T14:27:42;1.77;;;1.15;;
25780;SDS011;13626;48.128;11.628;2023-03-31T14:35:27;3.08;;;1.23;;
25780;SDS011;13626;48.128;11.628;2023-03-31T14:37:57;1.50;;;1.17;;
25780;SDS011;13626;48.128;11.628;2023-03-31T14:40:26;2.22;;;1.30;;
25780;SDS011;13626;48.128;11.628;2023-03-31T14:42:53;2.83;;;1.58;;
25780;SDS011;13626;48.128;11.628;2023-03-31T14:45:22;2.63;;;1.17;;
25780;SDS011;13626;48.128;11.628;2023-03-31T14:50:21;1.85;;;1.40;;
25780;SDS011;13626;48.128;11.628;2023-03-31T14:52:49;1.35;;;0.60;;
25780;SDS011;13626;48.128;11.628;2023-03-31T14:55:19;1.50;;;0.47;;
25780;SDS011;13626;48.128;11.628;2023-03-31T14:57:53;1.15;;;0.95;;
25780;SDS011;13626;48.128;11.628;2023-03-31T15:00:29;0.43;;;0.40;;
25780;SDS011;13626;48.128;11.628;2023-03-31T15:02:57;1.05;;;0.50;;
25780;SDS011;13626;48.128;11.628;2023-03-31T15:05:30;2.70;;;0.63;;
25780;SDS011;13626;48.128;11.628;2023-03-31T15:08:00;1.08;;;0.50;;
25780;SDS011;13626;48.128;11.628;2023-03-31T15:10:48;1.10;;;0.60;;
25780;SDS011;13626;48.128;11.628;2023-03-31T15:15:54;1.88;;;0.70;;
25780;SDS011;13626;48.128;11.628;2023-03-31T15:18:24;1.67;;;0.80;;
25780;SDS011;13626;48.128;11.628;2023-03-31T15:20:51;1.90;;;0.70;;
25780;SDS011;13626;48.128;11.628;2023-03-31T15:25:54;2.47;;;0.77;;
25780;SDS011;13626;48.128;11.628;2023-03-31T15:28:23;2.50;;;0.85;;
25780;SDS011;13626;48.128;11.628;2023-03-31T15:30:52;1.73;;;0.73;;
25780;SDS011;13626;48.128;11.628;2023-03-31T15:33:39;3.15;;;1.55;;
25780;SDS011;13626;48.128;11.628;2023-03-31T15:36:07;3.53;;;1.00;;
25780;SDS011;13626;48.128;11.628;2023-03-31T15:38:36;1.67;;;0.90;;
25780;SDS011;13626;48.128;11.628;2023-03-31T15:41:03;2.35;;;0.70;;
25780;SDS011;13626;48.128;11.628;2023-03-31T15:46:18;2.47;;;0.65;;
25780;SDS011;13626;48.128;11.628;2023-03-31T15:48:49;4.43;;;1.33;;
25780;SDS011;13626;48.128;11.628;2023-03-31T15:51:20;2.05;;;0.90;;
25780;SDS011;13626;48.128;11.628;2023-03-31T15:53:51;4.65;;;1.25;;
25780;SDS011;13626;48.128;11.628;2023-03-31T15:56:29;2.42;;;0.98;;
25780;SDS011;13626;48.128;11.628;2023-03-31T15:59:02;2.08;;;0.90;;
25780;SDS011;13626;48.128;11.628;2023-03-31T16:01:30;2.08;;;0.70;;
25780;SDS011;13626;48.128;11.628;2023-03-31T16:04:00;2.35;;;1.10;;
25780;SDS011;13626;48.128;11.628;2023-03-31T16:06:33;3.22;;;0.82;;
25780;SDS011;13626;48.128;11.628;2023-03-31T16:09:05;3.60;;;1.45;;
25780;SDS011;13626;48.128;11.628;2023-03-31T16:11:40;2.85;;;1.05;;
25780;SDS011;13626;48.128;11.628;2023-03-31T16:16:35;3.40;;;0.90;;
25780;SDS011;13626;48.128;11.628;2023-03-31T16:19:04;2.90;;;1.35;;
25780;SDS011;13626;48.128;11.628;2023-03-31T16:21:34;3.25;;;1.25;;
25780;SDS011;13626;48.128;11.628;2023-03-31T16:24:03;1.98;;;1.00;;
25780;SDS011;13626;48.128;11.628;2023-03-31T16:26:31;3.30;;;1.20;;
25780;SDS011;13626;48.128;11.628;2023-03-31T16:28:58;2.95;;;1.40;;
25780;SDS011;13626;48.128;11.628;2023-03-31T16:31:44;3.45;;;1.65;;
25780;SDS011;13626;48.128;11.628;2023-03-31T16:34:12;3.15;;;1.30;;
25780;SDS011;13626;48.128;11.628;2023-03-31T16:36:39;3.95;;;1.40;;
25780;SDS011;13626;48.128;11.628;2023-03-31T16:39:07;3.28;;;1.23;;
25780;SDS011;13626;48.128;11.628;2023-03-31T16:41:35;2.47;;;1.25;;
25780;SDS011;13626;48.128;11.628;2023-03-31T16:44:03;4.40;;;1.90;;
25780;SDS011;13626;48.128;11.628;2023-03-31T16:46:31;2.33;;;1.35;;
25780;SDS011;13626;48.128;11.628;2023-03-31T16:48:59;4.75;;;1.50;;
25780;SDS011;13626;48.128;11.628;2023-03-31T16:51:26;3.42;;;1.58;;
25780;SDS011;13626;48.128;11.628;2023-03-31T16:53:54;4.82;;;1.38;;
25780;SDS011;13626;48.128;11.628;2023-03-31T16:56:24;2.70;;;1.20;;
25780;SDS011;13626;48.128;11.628;2023-03-31T16:58:52;4.78;;;2.08;;
25780;SDS011;13626;48.128;11.628;2023-03-31T17:01:20;2.50;;;1.35;;
25780;SDS011;13626;48.128;11.628;2023-03-31T17:03:47;2.22;;;0.77;;
25780;SDS011;13626;48.128;11.628;2023-03-31T17:06:15;1.63;;;0.50;;
25780;SDS011;13626;48.128;11.628;2023-03-31T17:08:42;0.88;;;0.50;;
25780;SDS011;13626;48.128;11.628;2023-03-31T17:11:10;2.55;;;0.57;;
25780;SDS011;13626;48.128;11.628;2023-03-31T17:13:38;0.80;;;0.40;;
25780;SDS011;13626;48.128;11.628;2023-03-31T17:16:06;1.08;;;0.57;;
25780;SDS011;13626;48.128;11.628;2023-03-31T17:18:49;1.40;;;0.82;;
25780;SDS011;13626;48.128;11.628;2023-03-31T17:21:16;0.60;;;0.47;;
25780;SDS011;13626;48.128;11.628;2023-03-31T17:23:44;1.17;;;0.98;;
25780;SDS011;13626;48.128;11.628;2023-03-31T17:26:12;4.40;;;2.45;;
25780;SDS011;13626;48.128;11.628;2023-03-31T17:28:39;1.60;;;0.70;;
25780;SDS011;13626;48.128;11.628;2023-03-31T17:31:11;2.10;;;0.70;;
25780;SDS011;13626;48.128;11.628;2023-03-31T17:33:38;3.78;;;0.80;;
25780;SDS011;13626;48.128;11.628;2023-03-31T17:36:07;3.72;;;1.08;;
25780;SDS011;13626;48.128;11.628;2023-03-31T17:38:35;1.75;;;0.70;;